createdAt,value
2019-04-25T00:00:38.694Z,989.64
2019-04-25T00:01:38.684Z,989.66
2019-04-25T00:02:38.705Z,989.71
2019-04-25T00:03:38.659Z,989.75
2019-04-25T00:04:38.763Z,989.73
2019-04-25T00:05:38.783Z,989.77
2019-04-25T00:06:38.662Z,989.75
2019-04-25T00:07:38.749Z,989.74
2019-04-25T00:08:38.824Z,989.78
2019-04-25T00:09:38.991Z,989.79
2019-04-25T00:10:39.190Z,989.81
2019-04-25T00:11:39.291Z,989.78
2019-04-25T00:12:39.395Z,989.83
2019-04-25T00:13:39.632Z,989.81
2019-04-25T00:14:38.535Z,989.82
2019-04-25T00:15:38.524Z,989.84
2019-04-25T00:16:38.713Z,989.80
2019-04-25T00:17:38.602Z,989.78
2019-04-25T00:18:38.657Z,989.80
2019-04-25T00:19:38.760Z,989.81
2019-04-25T00:20:38.923Z,989.88
2019-04-25T00:21:39.237Z,989.94
2019-04-25T00:22:39.283Z,989.97
2019-04-25T00:23:39.371Z,990.00
2019-04-25T00:24:39.602Z,989.98
2019-04-25T00:25:38.437Z,990.00
2019-04-25T00:26:38.400Z,989.95
2019-04-25T00:27:38.405Z,989.93
2019-04-25T00:28:38.377Z,989.94
2019-04-25T00:29:38.365Z,989.94
2019-04-25T00:30:38.372Z,989.95
2019-04-25T00:31:38.367Z,989.93
2019-04-25T00:32:38.329Z,989.89
2019-04-25T00:33:38.323Z,989.87
2019-04-25T00:34:38.307Z,989.91
2019-04-25T00:35:38.325Z,989.89
2019-04-25T00:36:39.099Z,989.89
2019-04-25T00:37:38.273Z,989.85
2019-04-25T00:38:38.279Z,989.89
2019-04-25T00:39:38.250Z,989.84
2019-04-25T00:40:38.254Z,989.85
2019-04-25T00:41:38.253Z,989.85
2019-04-25T00:42:38.216Z,989.84
2019-04-25T00:43:38.212Z,989.80
2019-04-25T00:44:38.220Z,989.78
2019-04-25T00:45:38.185Z,989.80
2019-04-25T00:46:38.231Z,989.76
2019-04-25T00:47:38.161Z,989.75
2019-04-25T00:48:38.154Z,989.74
2019-04-25T00:49:38.561Z,989.76
2019-04-25T00:50:38.127Z,989.81
2019-04-25T00:51:38.116Z,989.81
2019-04-25T00:52:38.158Z,989.85
2019-04-25T00:53:38.120Z,989.85
2019-04-25T00:54:38.089Z,989.91
2019-04-25T00:55:38.071Z,989.85
2019-04-25T00:56:38.076Z,989.84
2019-04-25T00:57:38.073Z,989.88
2019-04-25T00:58:38.038Z,989.90
2019-04-25T00:59:38.028Z,989.94
2019-04-25T01:00:38.043Z,989.99
2019-04-25T01:01:38.007Z,990.04
2019-04-25T01:02:38.015Z,990.05
2019-04-25T01:03:37.981Z,990.06
2019-04-25T01:04:37.970Z,990.10
2019-04-25T01:05:37.957Z,990.10
2019-04-25T01:06:37.948Z,990.14
2019-04-25T01:07:37.970Z,990.14
2019-04-25T01:08:37.924Z,990.16
2019-04-25T01:09:37.912Z,990.20
2019-04-25T01:10:37.902Z,990.18
2019-04-25T01:11:37.890Z,990.19
2019-04-25T01:12:37.892Z,990.19
2019-04-25T01:13:37.866Z,990.14
2019-04-25T01:14:37.859Z,990.16
2019-04-25T01:15:37.846Z,990.09
2019-04-25T01:16:37.834Z,990.11
2019-04-25T01:17:37.846Z,990.13
2019-04-25T01:18:37.835Z,990.11
2019-04-25T01:19:37.801Z,990.09
2019-04-25T01:20:37.788Z,990.09
2019-04-25T01:21:37.785Z,990.09
2019-04-25T01:22:37.796Z,990.09
2019-04-25T01:23:37.755Z,990.10
2019-04-25T01:24:37.768Z,990.12
2019-04-25T01:25:40.961Z,990.13
2019-04-25T01:26:37.748Z,990.16
2019-04-25T01:27:37.710Z,990.18
2019-04-25T01:28:37.699Z,990.17
2019-04-25T01:29:37.735Z,990.24
2019-04-25T01:30:37.676Z,990.27
2019-04-25T01:31:37.670Z,990.29
2019-04-25T01:32:37.657Z,990.27
2019-04-25T01:33:37.642Z,990.16
2019-04-25T01:34:37.653Z,990.15
2019-04-25T01:35:37.622Z,990.12
2019-04-25T01:36:37.609Z,990.12
2019-04-25T01:37:37.598Z,990.17
2019-04-25T01:38:37.612Z,990.18
2019-04-25T01:39:37.577Z,990.16
2019-04-25T01:40:37.567Z,990.21
2019-04-25T01:41:37.552Z,990.18
2019-04-25T01:42:37.567Z,990.15
2019-04-25T01:43:37.534Z,990.18
2019-04-25T01:44:37.519Z,990.15
2019-04-25T01:45:37.530Z,990.13
2019-04-25T01:46:37.521Z,990.05
2019-04-25T01:47:37.485Z,990.03
2019-04-25T01:48:37.474Z,989.98
2019-04-25T01:49:37.467Z,989.99
2019-04-25T01:50:37.474Z,990.00
2019-04-25T01:51:37.440Z,989.97
2019-04-25T01:52:37.428Z,989.97
2019-04-25T01:53:37.419Z,989.98
2019-04-25T01:54:37.428Z,989.99
2019-04-25T01:55:37.393Z,989.94
2019-04-25T01:56:37.382Z,989.95
2019-04-25T01:57:37.371Z,989.95
2019-04-25T01:58:37.363Z,989.92
2019-04-25T01:59:37.372Z,989.94
2019-04-25T02:00:37.338Z,989.95
2019-04-25T02:01:37.325Z,989.95
2019-04-25T02:02:37.316Z,989.96
2019-04-25T02:03:37.303Z,989.95
2019-04-25T02:04:37.313Z,989.93
2019-04-25T02:05:37.303Z,989.99
2019-04-25T02:06:37.268Z,989.99
2019-04-25T02:07:37.261Z,989.99
2019-04-25T02:08:37.249Z,989.96
2019-04-25T02:09:37.261Z,990.02
2019-04-25T02:10:37.225Z,989.99
2019-04-25T02:11:37.212Z,990.01
2019-04-25T02:12:37.203Z,990.01
2019-04-25T02:13:37.216Z,989.96
2019-04-25T02:14:37.179Z,989.99
2019-04-25T02:15:37.168Z,989.99
2019-04-25T02:16:37.158Z,990.05
2019-04-25T02:17:37.145Z,990.06
2019-04-25T02:18:37.156Z,990.07
2019-04-25T02:19:37.122Z,990.06
2019-04-25T02:20:37.110Z,990.06
2019-04-25T02:21:37.122Z,990.06
2019-04-25T02:22:37.091Z,990.05
2019-04-25T02:23:37.076Z,990.06
2019-04-25T02:24:37.066Z,990.08
2019-04-25T02:25:37.077Z,990.08
2019-04-25T02:26:37.042Z,990.10
2019-04-25T02:27:37.032Z,990.11
2019-04-25T02:28:37.021Z,990.15
2019-04-25T02:29:37.039Z,990.17
2019-04-25T02:30:37.038Z,990.14
2019-04-25T02:31:36.989Z,990.11
2019-04-25T02:32:37.357Z,990.18
2019-04-25T02:33:36.967Z,990.17
2019-04-25T02:34:36.977Z,990.24
2019-04-25T02:35:36.943Z,990.26
2019-04-25T02:36:36.956Z,990.25
2019-04-25T02:37:36.925Z,990.32
2019-04-25T02:38:36.912Z,990.35
2019-04-25T02:39:37.574Z,990.35
2019-04-25T02:40:36.915Z,990.27
2019-04-25T02:41:36.901Z,990.35
2019-04-25T02:42:36.865Z,990.32
2019-04-25T02:43:36.853Z,990.39
2019-04-25T02:44:36.870Z,990.38
2019-04-25T02:45:36.868Z,990.36
2019-04-25T02:46:37.236Z,990.38
2019-04-25T02:47:36.809Z,990.43
2019-04-25T02:48:36.798Z,990.44
2019-04-25T02:49:39.648Z,990.47
2019-04-25T02:50:36.797Z,990.54
2019-04-25T02:51:36.786Z,990.54
2019-04-25T02:52:36.755Z,990.54
2019-04-25T02:53:37.507Z,990.51
2019-04-25T02:54:36.752Z,990.49
2019-04-25T02:55:37.502Z,990.48
2019-04-25T02:56:38.839Z,990.44
2019-04-25T02:57:36.717Z,990.44
2019-04-25T02:58:36.687Z,990.41
2019-04-25T02:59:37.006Z,990.38
2019-04-25T03:00:51.619Z,990.39
2019-04-25T03:01:37.679Z,990.47
2019-04-25T03:02:37.102Z,990.42
2019-04-25T03:03:36.668Z,990.41
2019-04-25T03:04:36.641Z,990.39
2019-04-25T03:05:36.640Z,990.39
2019-04-25T03:06:36.647Z,990.41
2019-04-25T03:07:36.613Z,990.47
2019-04-25T03:08:36.575Z,990.50
2019-04-25T03:09:36.563Z,990.51
2019-04-25T03:10:36.553Z,990.56
2019-04-25T03:11:36.543Z,990.59
2019-04-25T03:12:36.907Z,990.63
2019-04-25T03:13:36.516Z,990.60
2019-04-25T03:14:36.506Z,990.64
2019-04-25T03:15:36.730Z,990.63
2019-04-25T03:16:36.510Z,990.63
2019-04-25T03:17:36.473Z,990.63
2019-04-25T03:18:36.486Z,990.62
2019-04-25T03:19:36.450Z,990.60
2019-04-25T03:20:36.443Z,990.57
2019-04-25T03:21:36.452Z,990.56
2019-04-25T03:22:36.415Z,990.52
2019-04-25T03:23:36.429Z,990.55
2019-04-25T03:24:36.393Z,990.55
2019-04-25T03:25:36.384Z,990.54
2019-04-25T03:26:40.302Z,990.56
2019-04-25T03:27:36.360Z,990.53
2019-04-25T03:28:36.379Z,990.57
2019-04-25T03:29:36.343Z,990.54
2019-04-25T03:30:36.327Z,990.48
2019-04-25T03:31:36.328Z,990.46
2019-04-25T03:32:36.304Z,990.50
2019-04-25T03:33:38.348Z,990.47
2019-04-25T03:34:36.284Z,990.51
2019-04-25T03:35:36.271Z,990.54
2019-04-25T03:36:36.259Z,990.56
2019-04-25T03:37:36.271Z,990.52
2019-04-25T03:38:36.239Z,990.56
2019-04-25T03:39:36.230Z,990.55
2019-04-25T03:40:36.213Z,990.58
2019-04-25T03:41:36.203Z,990.59
2019-04-25T03:42:36.219Z,990.63
2019-04-25T03:43:36.180Z,990.62
2019-04-25T03:44:36.169Z,990.63
2019-04-25T03:45:36.159Z,990.62
2019-04-25T03:46:36.152Z,990.66
2019-04-25T03:47:36.152Z,990.72
2019-04-25T03:48:37.004Z,990.76
2019-04-25T03:49:36.113Z,990.76
2019-04-25T03:50:36.107Z,990.70
2019-04-25T03:51:36.116Z,990.74
2019-04-25T03:52:36.079Z,990.74
2019-04-25T03:53:36.067Z,990.72
2019-04-25T03:54:36.088Z,990.71
2019-04-25T03:55:36.053Z,990.75
2019-04-25T03:56:36.060Z,990.81
2019-04-25T03:57:36.026Z,990.83
2019-04-25T03:58:36.012Z,990.84
2019-04-25T03:59:36.002Z,990.94
2019-04-25T04:00:36.464Z,990.92
2019-04-25T04:01:35.977Z,990.95
2019-04-25T04:02:35.973Z,991.03
2019-04-25T04:03:35.962Z,991.04
2019-04-25T04:04:35.969Z,991.05
2019-04-25T04:05:35.934Z,990.99
2019-04-25T04:06:35.922Z,990.99
2019-04-25T04:07:35.911Z,991.06
2019-04-25T04:08:35.917Z,991.07
2019-04-25T04:09:35.920Z,991.07
2019-04-25T04:10:35.879Z,991.09
2019-04-25T04:11:35.869Z,991.12
2019-04-25T04:12:35.854Z,991.15
2019-04-25T04:13:35.843Z,991.17
2019-04-25T04:14:35.854Z,991.12
2019-04-25T04:15:35.823Z,991.15
2019-04-25T04:16:35.814Z,991.17
2019-04-25T04:17:35.807Z,991.19
2019-04-25T04:18:35.788Z,991.22
2019-04-25T04:19:35.807Z,991.24
2019-04-25T04:20:35.767Z,991.24
2019-04-25T04:21:35.754Z,991.21
2019-04-25T04:22:35.747Z,991.25
2019-04-25T04:23:35.731Z,991.29
2019-04-25T04:24:35.742Z,991.28
2019-04-25T04:25:35.712Z,991.32
2019-04-25T04:26:35.698Z,991.34
2019-04-25T04:27:35.689Z,991.37
2019-04-25T04:28:35.679Z,991.42
2019-04-25T04:29:35.702Z,991.41
2019-04-25T04:30:35.655Z,991.39
2019-04-25T04:31:35.645Z,991.40
2019-04-25T04:32:35.631Z,991.37
2019-04-25T04:33:35.619Z,991.40
2019-04-25T04:34:35.633Z,991.36
2019-04-25T04:35:35.597Z,991.37
2019-04-25T04:36:35.586Z,991.32
2019-04-25T04:37:35.598Z,991.35
2019-04-25T04:38:35.581Z,991.37
2019-04-25T04:39:35.551Z,991.34
2019-04-25T04:40:36.207Z,991.36
2019-04-25T04:41:35.553Z,991.35
2019-04-25T04:42:35.521Z,991.40
2019-04-25T04:43:35.508Z,991.40
2019-04-25T04:44:35.501Z,991.43
2019-04-25T04:45:35.521Z,991.43
2019-04-25T04:46:35.488Z,991.43
2019-04-25T04:47:35.460Z,991.41
2019-04-25T04:48:35.449Z,991.42
2019-04-25T04:49:35.442Z,991.47
2019-04-25T04:50:35.573Z,991.45
2019-04-25T04:51:35.421Z,991.48
2019-04-25T04:52:35.420Z,991.49
2019-04-25T04:53:35.843Z,991.53
2019-04-25T04:54:35.391Z,991.48
2019-04-25T04:55:35.375Z,991.56
2019-04-25T04:56:35.381Z,991.53
2019-04-25T04:57:36.405Z,991.55
2019-04-25T04:58:35.341Z,991.57
2019-04-25T04:59:35.368Z,991.62
2019-04-25T05:00:35.314Z,991.61
2019-04-25T05:01:35.327Z,991.62
2019-04-25T05:02:36.030Z,991.61
2019-04-25T05:03:35.282Z,991.63
2019-04-25T05:04:35.273Z,991.64
2019-04-25T05:05:36.030Z,991.61
2019-04-25T05:06:35.247Z,991.58
2019-04-25T05:07:35.237Z,991.58
2019-04-25T05:08:35.234Z,991.59
2019-04-25T05:09:35.238Z,991.61
2019-04-25T05:10:35.205Z,991.58
2019-04-25T05:11:35.194Z,991.62
2019-04-25T05:12:35.185Z,991.62
2019-04-25T05:13:35.172Z,991.58
2019-04-25T05:14:35.201Z,991.60
2019-04-25T05:15:35.148Z,991.65
2019-04-25T05:16:35.140Z,991.60
2019-04-25T05:17:35.128Z,991.71
2019-04-25T05:18:39.441Z,991.73
2019-04-25T05:19:35.129Z,991.80
2019-04-25T05:20:35.602Z,991.71
2019-04-25T05:21:35.082Z,991.72
2019-04-25T05:22:35.070Z,991.78
2019-04-25T05:23:35.083Z,991.77
2019-04-25T05:24:35.046Z,991.81
2019-04-25T05:25:35.035Z,991.80
2019-04-25T05:26:35.027Z,991.84
2019-04-25T05:27:46.296Z,991.83
2019-04-25T05:28:36.002Z,991.80
2019-04-25T05:29:34.992Z,991.83
2019-04-25T05:30:34.979Z,991.86
2019-04-25T05:31:34.989Z,991.87
2019-04-25T05:32:34.964Z,991.88
2019-04-25T05:33:34.951Z,991.92
2019-04-25T05:34:34.934Z,991.93
2019-04-25T05:35:34.947Z,991.96
2019-04-25T05:36:34.918Z,991.93
2019-04-25T05:37:34.929Z,991.95
2019-04-25T05:38:34.899Z,991.89
2019-04-25T05:39:34.877Z,991.89
2019-04-25T05:40:34.891Z,991.93
2019-04-25T05:41:35.981Z,991.90
2019-04-25T05:42:34.845Z,991.93
2019-04-25T05:43:34.858Z,991.93
2019-04-25T05:44:34.821Z,991.94
2019-04-25T05:45:34.811Z,991.98
2019-04-25T05:46:34.802Z,991.94
2019-04-25T05:47:34.791Z,991.89
2019-04-25T05:48:34.799Z,991.90
2019-04-25T05:49:34.765Z,991.92
2019-04-25T05:50:34.780Z,991.89
2019-04-25T05:51:34.743Z,991.92
2019-04-25T05:52:34.731Z,991.98
2019-04-25T05:53:34.719Z,992.02
2019-04-25T05:54:34.707Z,992.02
2019-04-25T05:55:34.721Z,992.06
2019-04-25T05:56:34.686Z,992.02
2019-04-25T05:57:45.507Z,991.98
2019-04-25T05:58:35.683Z,991.98
2019-04-25T05:59:34.674Z,991.95
2019-04-25T06:00:34.662Z,992.00
2019-04-25T06:01:35.826Z,992.03
2019-04-25T06:02:34.619Z,992.03
2019-04-25T06:03:34.606Z,992.02
2019-04-25T06:04:34.595Z,991.99
2019-04-25T06:05:34.610Z,991.97
2019-04-25T06:06:36.604Z,991.93
2019-04-25T06:07:34.584Z,992.01
2019-04-25T06:08:34.591Z,991.97
2019-04-25T06:09:35.852Z,992.03
2019-04-25T06:10:34.528Z,992.05
2019-04-25T06:11:34.518Z,992.03
2019-04-25T06:12:34.506Z,992.04
2019-04-25T06:13:34.527Z,992.02
2019-04-25T06:14:34.499Z,992.06
2019-04-25T06:15:34.471Z,992.15
2019-04-25T06:16:34.483Z,992.13
2019-04-25T06:17:34.464Z,992.15
2019-04-25T06:18:34.438Z,992.12
2019-04-25T06:19:34.450Z,992.12
2019-04-25T06:20:34.445Z,992.14
2019-04-25T06:21:34.405Z,992.11
2019-04-25T06:22:34.392Z,992.16
2019-04-25T06:23:34.380Z,992.12
2019-04-25T06:24:34.400Z,992.07
2019-04-25T06:25:39.457Z,992.05
2019-04-25T06:26:39.726Z,992.04
2019-04-25T06:27:35.200Z,992.04
2019-04-25T06:28:34.639Z,992.07
2019-04-25T06:29:34.781Z,992.09
2019-04-25T06:30:35.247Z,992.11
2019-04-25T06:31:34.293Z,992.13
2019-04-25T06:32:35.479Z,992.10
2019-04-25T06:33:34.364Z,992.07
2019-04-25T06:34:36.327Z,992.07
2019-04-25T06:35:35.684Z,992.04
2019-04-25T06:36:35.354Z,992.03
2019-04-25T06:37:35.138Z,992.10
2019-04-25T06:38:34.232Z,992.04
2019-04-25T06:39:34.198Z,992.07
2019-04-25T06:40:34.583Z,992.04
2019-04-25T06:41:35.290Z,992.07
2019-04-25T06:42:34.699Z,992.07
2019-04-25T06:43:34.324Z,992.05
2019-04-25T06:44:34.571Z,992.01
2019-04-25T06:45:34.487Z,991.99
2019-04-25T06:46:34.120Z,992.06
2019-04-25T06:47:34.185Z,992.07
2019-04-25T06:48:35.182Z,992.05
2019-04-25T06:49:36.502Z,992.10
2019-04-25T06:50:35.305Z,992.12
2019-04-25T06:51:34.351Z,992.08
2019-04-25T06:52:35.409Z,992.08
2019-04-25T06:53:34.701Z,992.06
2019-04-25T06:54:35.295Z,992.07
2019-04-25T06:55:34.386Z,992.07
2019-04-25T06:56:34.485Z,992.11
2019-04-25T06:57:34.224Z,992.06
2019-04-25T06:58:34.299Z,992.08
2019-04-25T06:59:34.460Z,992.04
2019-04-25T07:00:40.784Z,991.98
2019-04-25T07:01:34.951Z,992.06
2019-04-25T07:02:35.184Z,992.03
2019-04-25T07:03:35.609Z,992.03
2019-04-25T07:04:34.823Z,992.06
2019-04-25T07:05:40.271Z,992.09
2019-04-25T07:06:34.900Z,992.03
2019-04-25T07:07:35.107Z,991.98
2019-04-25T07:08:35.375Z,992.01
2019-04-25T07:09:34.952Z,991.94
2019-04-25T07:10:34.884Z,991.97
2019-04-25T07:11:34.870Z,991.97
2019-04-25T07:12:34.850Z,992.02
2019-04-25T07:13:36.928Z,992.07
2019-04-25T07:14:36.655Z,992.00
2019-04-25T07:15:35.191Z,992.08
2019-04-25T07:16:34.672Z,992.12
2019-04-25T07:17:35.006Z,992.09
2019-04-25T07:18:36.357Z,992.16
2019-04-25T07:19:34.387Z,992.17
2019-04-25T07:20:34.595Z,992.16
2019-04-25T07:21:34.642Z,992.17
2019-04-25T07:22:35.077Z,992.20
2019-04-25T07:23:34.648Z,992.15
2019-04-25T07:24:35.236Z,992.13
2019-04-25T07:25:35.303Z,992.07
2019-04-25T07:26:37.708Z,992.09
2019-04-25T07:27:35.584Z,992.08
2019-04-25T07:28:35.588Z,992.12
2019-04-25T07:29:34.575Z,992.15
2019-04-25T07:30:49.017Z,992.08
2019-04-25T07:31:35.635Z,992.06
2019-04-25T07:32:34.871Z,992.05
2019-04-25T07:33:34.820Z,992.00
2019-04-25T07:34:34.151Z,991.93
2019-04-25T07:35:34.602Z,991.94
2019-04-25T07:36:35.114Z,991.87
2019-04-25T07:37:34.901Z,991.85
2019-04-25T07:38:34.098Z,991.88
2019-04-25T07:39:34.384Z,991.86
2019-04-25T07:40:34.883Z,991.87
2019-04-25T07:41:34.303Z,991.88
2019-04-25T07:42:34.231Z,991.84
2019-04-25T07:43:34.128Z,991.89
2019-04-25T07:44:43.955Z,991.93
2019-04-25T07:45:35.047Z,991.93
2019-04-25T07:46:37.228Z,991.88
2019-04-25T07:47:35.479Z,991.87
2019-04-25T07:48:36.309Z,991.86
2019-04-25T07:49:34.723Z,991.84
2019-04-25T07:50:34.325Z,991.87
2019-04-25T07:51:34.607Z,991.92
2019-04-25T07:52:34.846Z,991.90
2019-04-25T07:53:34.801Z,991.94
2019-04-25T07:54:34.375Z,991.98
2019-04-25T07:55:35.948Z,992.00
2019-04-25T07:56:34.999Z,992.02
2019-04-25T07:57:34.600Z,992.01
2019-04-25T07:58:45.362Z,991.97
2019-04-25T07:59:35.375Z,991.95
2019-04-25T08:00:35.140Z,991.98
2019-04-25T08:01:36.147Z,992.01
2019-04-25T08:02:34.142Z,991.96
2019-04-25T08:03:34.427Z,991.95
2019-04-25T08:04:35.684Z,991.99
2019-04-25T08:05:35.180Z,991.97
2019-04-25T08:06:34.479Z,992.02
2019-04-25T08:07:33.919Z,992.01
2019-04-25T08:08:33.965Z,992.06
2019-04-25T08:09:35.224Z,992.03
2019-04-25T08:10:33.876Z,992.02
2019-04-25T08:11:34.171Z,992.07
2019-04-25T08:12:34.673Z,992.04
2019-04-25T08:13:34.252Z,992.05
2019-04-25T08:14:34.206Z,992.05
2019-04-25T08:15:33.869Z,992.06
2019-04-25T08:16:34.360Z,992.10
2019-04-25T08:17:34.652Z,992.08
2019-04-25T08:18:34.802Z,992.13
2019-04-25T08:19:33.544Z,992.10
2019-04-25T08:20:34.750Z,992.14
2019-04-25T08:21:34.382Z,992.17
2019-04-25T08:22:34.513Z,992.17
2019-04-25T08:23:36.708Z,992.14
2019-04-25T08:24:34.613Z,992.16
2019-04-25T08:25:33.792Z,992.17
2019-04-25T08:26:34.982Z,992.17
2019-04-25T08:27:34.387Z,992.12
2019-04-25T08:28:34.497Z,992.18
2019-04-25T08:29:36.436Z,992.19
2019-04-25T08:30:35.169Z,992.20
2019-04-25T08:31:34.815Z,992.24
2019-04-25T08:32:34.827Z,992.23
2019-04-25T08:33:34.544Z,992.14
2019-04-25T08:34:34.816Z,992.22
2019-04-25T08:35:34.232Z,992.19
2019-04-25T08:36:33.756Z,992.23
2019-04-25T08:37:34.480Z,992.21
2019-04-25T08:38:34.504Z,992.16
2019-04-25T08:39:34.063Z,992.17
2019-04-25T08:40:35.012Z,992.20
2019-04-25T08:41:34.822Z,992.22
2019-04-25T08:42:35.391Z,992.17
2019-04-25T08:43:36.341Z,992.21
2019-04-25T08:44:34.505Z,992.17
2019-04-25T08:45:33.587Z,992.18
2019-04-25T08:46:35.790Z,992.15
2019-04-25T08:47:34.817Z,992.14
2019-04-25T08:48:34.321Z,992.19
2019-04-25T08:49:34.493Z,992.21
2019-04-25T08:50:35.833Z,992.19
2019-04-25T08:51:34.843Z,992.19
2019-04-25T08:52:35.053Z,992.14
2019-04-25T08:53:34.449Z,992.16
2019-04-25T08:54:35.399Z,992.13
2019-04-25T08:55:34.938Z,992.18
2019-04-25T08:56:34.943Z,992.22
2019-04-25T08:57:34.140Z,992.26
2019-04-25T08:58:34.483Z,992.20
2019-04-25T08:59:39.930Z,992.18
2019-04-25T09:00:35.718Z,992.23
2019-04-25T09:01:36.535Z,992.21
2019-04-25T09:02:36.071Z,992.27
2019-04-25T09:03:34.629Z,992.22
2019-04-25T09:04:34.292Z,992.22
2019-04-25T09:05:33.387Z,992.20
2019-04-25T09:06:33.326Z,992.25
2019-04-25T09:07:35.054Z,992.26
2019-04-25T09:08:35.417Z,992.28
2019-04-25T09:09:34.963Z,992.26
2019-04-25T09:10:35.219Z,992.29
2019-04-25T09:11:34.796Z,992.28
2019-04-25T09:12:35.190Z,992.26
2019-04-25T09:13:33.058Z,992.26
2019-04-25T09:14:34.861Z,992.29
2019-04-25T09:15:33.731Z,992.31
2019-04-25T09:16:34.527Z,992.28
2019-04-25T09:17:33.183Z,992.29
2019-04-25T09:18:34.733Z,992.33
2019-04-25T09:19:33.349Z,992.31
2019-04-25T09:20:34.681Z,992.31
2019-04-25T09:21:36.100Z,992.28
2019-04-25T09:22:35.031Z,992.32
2019-04-25T09:23:34.412Z,992.31
2019-04-25T09:24:33.510Z,992.32
2019-04-25T09:25:34.500Z,992.32
2019-04-25T09:26:33.915Z,992.29
2019-04-25T09:27:34.321Z,992.30
2019-04-25T09:28:34.739Z,992.31
2019-04-25T09:29:35.259Z,992.33
2019-04-25T09:30:33.975Z,992.26
2019-04-25T09:31:34.299Z,992.24
2019-04-25T09:32:33.753Z,992.26
2019-04-25T09:33:32.272Z,992.26
2019-04-25T09:34:33.587Z,992.28
2019-04-25T09:35:33.514Z,992.23
2019-04-25T09:36:33.614Z,992.29
2019-04-25T09:37:33.623Z,992.20
2019-04-25T09:38:33.887Z,992.24
2019-04-25T09:39:33.688Z,992.17
2019-04-25T09:40:32.176Z,992.15
2019-04-25T09:41:33.606Z,992.10
2019-04-25T09:42:33.662Z,992.08
2019-04-25T09:43:33.481Z,992.17
2019-04-25T09:44:32.163Z,992.15
2019-04-25T09:45:33.487Z,992.06
2019-04-25T09:46:32.108Z,992.07
2019-04-25T09:47:33.551Z,992.07
2019-04-25T09:48:32.087Z,992.05
2019-04-25T09:49:33.882Z,991.97
2019-04-25T09:50:33.870Z,991.97
2019-04-25T09:51:33.575Z,991.95
2019-04-25T09:52:32.042Z,991.94
2019-04-25T09:53:33.945Z,991.97
2019-04-25T09:54:33.426Z,991.94
2019-04-25T09:55:32.015Z,991.95
2019-04-25T09:56:32.026Z,991.90
2019-04-25T09:57:33.478Z,991.90
2019-04-25T09:58:32.020Z,991.91
2019-04-25T09:59:33.145Z,991.93
2019-04-25T10:00:33.415Z,991.87
2019-04-25T10:01:31.947Z,991.92
2019-04-25T10:02:31.966Z,991.94
2019-04-25T10:03:33.354Z,991.95
2019-04-25T10:04:34.459Z,991.97
2019-04-25T10:05:31.897Z,991.95
2019-04-25T10:06:33.316Z,991.87
2019-04-25T10:07:31.900Z,992.00
2019-04-25T10:08:31.865Z,992.00
2019-04-25T10:09:33.669Z,992.02
2019-04-25T10:10:31.843Z,991.93
2019-04-25T10:11:33.444Z,991.89
2019-04-25T10:12:31.847Z,991.87
2019-04-25T10:13:31.812Z,991.89
2019-04-25T10:14:31.800Z,991.89
2019-04-25T10:15:31.790Z,991.88
2019-04-25T10:16:31.779Z,991.87
2019-04-25T10:17:31.794Z,991.86
2019-04-25T10:18:33.329Z,991.83
2019-04-25T10:19:31.745Z,991.79
2019-04-25T10:20:33.265Z,991.86
2019-04-25T10:21:31.722Z,991.83
2019-04-25T10:22:31.734Z,991.80
2019-04-25T10:23:31.722Z,991.72
2019-04-25T10:24:31.695Z,991.79
2019-04-25T10:25:33.331Z,991.75
2019-04-25T10:26:31.669Z,991.74
2019-04-25T10:27:31.657Z,991.74
2019-04-25T10:28:33.452Z,991.75
2019-04-25T10:29:41.639Z,991.75
2019-04-25T10:30:34.200Z,991.76
2019-04-25T10:31:31.613Z,991.81
2019-04-25T10:32:31.600Z,991.72
2019-04-25T10:33:31.591Z,991.67
2019-04-25T10:34:33.243Z,991.69
2019-04-25T10:35:34.231Z,991.71
2019-04-25T10:36:33.634Z,991.69
2019-04-25T10:37:31.545Z,991.67
2019-04-25T10:38:34.831Z,991.70
2019-04-25T10:39:31.530Z,991.70
2019-04-25T10:40:31.513Z,991.64
2019-04-25T10:41:35.388Z,991.64
2019-04-25T10:42:31.494Z,991.68
2019-04-25T10:43:31.505Z,991.65
2019-04-25T10:44:31.472Z,991.65
2019-04-25T10:45:31.458Z,991.61
2019-04-25T10:46:31.456Z,991.61
2019-04-25T10:47:31.461Z,991.57
2019-04-25T10:48:31.447Z,991.54
2019-04-25T10:49:31.416Z,991.53
2019-04-25T10:50:31.404Z,991.56
2019-04-25T10:51:31.392Z,991.61
2019-04-25T10:52:31.379Z,991.60
2019-04-25T10:53:31.392Z,991.49
2019-04-25T10:54:31.357Z,991.56
2019-04-25T10:55:31.352Z,991.53
2019-04-25T10:56:31.337Z,991.58
2019-04-25T10:57:31.348Z,991.60
2019-04-25T10:58:31.313Z,991.58
2019-04-25T10:59:31.303Z,991.49
2019-04-25T11:00:31.316Z,991.48
2019-04-25T11:01:31.284Z,991.50
2019-04-25T11:02:31.269Z,991.47
2019-04-25T11:03:31.258Z,991.43
2019-04-25T11:04:31.250Z,991.40
2019-04-25T11:05:31.261Z,991.41
2019-04-25T11:06:31.225Z,991.43
2019-04-25T11:07:31.214Z,991.37
2019-04-25T11:08:31.204Z,991.29
2019-04-25T11:09:31.192Z,991.31
2019-04-25T11:10:31.205Z,991.32
2019-04-25T11:11:31.171Z,991.29
2019-04-25T11:12:31.159Z,991.33
2019-04-25T11:13:31.148Z,991.35
2019-04-25T11:14:31.175Z,991.41
2019-04-25T11:15:31.156Z,991.37
2019-04-25T11:16:31.118Z,991.32
2019-04-25T11:17:31.105Z,991.35
2019-04-25T11:18:31.093Z,991.33
2019-04-25T11:19:31.081Z,991.32
2019-04-25T11:20:31.096Z,991.32
2019-04-25T11:21:31.066Z,991.32
2019-04-25T11:22:31.048Z,991.34
2019-04-25T11:23:31.041Z,991.35
2019-04-25T11:24:31.027Z,991.34
2019-04-25T11:25:31.031Z,991.32
2019-04-25T11:26:31.041Z,991.35
2019-04-25T11:27:30.993Z,991.38
2019-04-25T11:28:30.982Z,991.33
2019-04-25T11:29:30.975Z,991.35
2019-04-25T11:30:30.962Z,991.38
2019-04-25T11:31:30.975Z,991.34
2019-04-25T11:32:30.963Z,991.36
2019-04-25T11:33:30.930Z,991.36
2019-04-25T11:34:30.916Z,991.29
2019-04-25T11:35:30.905Z,991.25
2019-04-25T11:36:30.896Z,991.20
2019-04-25T11:37:30.904Z,991.21
2019-04-25T11:38:31.024Z,991.19
2019-04-25T11:39:30.860Z,991.22
2019-04-25T11:40:30.853Z,991.25
2019-04-25T11:41:30.840Z,991.23
2019-04-25T11:42:30.850Z,991.27
2019-04-25T11:43:30.842Z,991.19
2019-04-25T11:44:30.804Z,991.22
2019-04-25T11:45:30.793Z,991.21
2019-04-25T11:46:30.787Z,991.20
2019-04-25T11:47:30.772Z,991.23
2019-04-25T11:48:30.777Z,991.19
2019-04-25T11:49:30.755Z,991.18
2019-04-25T11:50:30.740Z,991.21
2019-04-25T11:51:30.751Z,991.23
2019-04-25T11:52:30.727Z,991.12
2019-04-25T11:53:30.721Z,991.12
2019-04-25T11:54:30.696Z,991.11
2019-04-25T11:55:30.698Z,991.05
2019-04-25T11:56:30.700Z,990.98
2019-04-25T11:57:30.687Z,991.00
2019-04-25T11:58:30.674Z,990.98
2019-04-25T11:59:30.638Z,991.16
2019-04-25T12:00:30.629Z,991.06
2019-04-25T12:01:30.618Z,991.06
2019-04-25T12:02:30.606Z,991.07
2019-04-25T12:03:30.621Z,991.00
2019-04-25T12:04:30.584Z,991.03
2019-04-25T12:05:30.572Z,991.00
2019-04-25T12:06:30.562Z,990.94
2019-04-25T12:07:30.559Z,990.95
2019-04-25T12:08:30.565Z,991.07
2019-04-25T12:09:30.529Z,991.06
2019-04-25T12:10:30.552Z,991.05
2019-04-25T12:11:30.507Z,991.01
2019-04-25T12:12:30.502Z,990.98
2019-04-25T12:13:30.511Z,990.93
2019-04-25T12:14:30.474Z,990.92
2019-04-25T12:15:30.479Z,990.93
2019-04-25T12:16:30.452Z,990.94
2019-04-25T12:17:30.440Z,990.93
2019-04-25T12:18:33.228Z,990.91
2019-04-25T12:19:35.797Z,990.89
2019-04-25T12:20:31.409Z,990.83
2019-04-25T12:21:30.412Z,990.79
2019-04-25T12:22:30.387Z,990.76
2019-04-25T12:23:30.375Z,990.78
2019-04-25T12:24:30.363Z,990.84
2019-04-25T12:25:30.375Z,990.77
2019-04-25T12:26:30.366Z,990.73
2019-04-25T12:27:30.331Z,990.80
2019-04-25T12:28:30.321Z,990.76